Corvallis Municipal Airport Corvallis US
ICAO: KCVO
IATA: CVO
Category: Medium
Scheduled Services: No

Elevation: 250 ft
TransAlt. 18000 ft.

Airport Communications:
CASCADE APP/DEP:127.5
AWOS 3:135.775
CTAF/UNICOM:123

KCVO Zoom In..

If you have problems with the map follow the link
https://www.worldairports.se/pages/airport.php?
ICAO=KCVO

Runways:

(A) RW 09 length 3545 ft width 75 ft
---- / hdg 94

(B) RW 17 length 5900 ft width 150 ft
ILS 111.90 / hdg 169

(C) RW 27 length 3545 ft width 75 ft
---- / hdg 274

(D) RW 35 length 5900 ft width 150 ft
---- / hdg 349

Location; KCVO
Day. 24 / Time. 10.56 Zulu
* Altimeter: 30.23
* Temperature: 05° c. 41°f.
* Wind from: 000° Speed 00 kn.
Dewpoint: 04° c.
Visibility: 1/4 Statute Miles.
Clouds: Overcast 200 ft.
Conditions: Fog.

KCVO 241056Z AUTO 00000KT 1/4SM FG OVC002 05/04 A3023 RMK AO2 SLP239 T00500044 RVRNO


Wind - Calm.

 
 
jpsmedia.com for Web Design worldairports.se 2019   terms of use